createdAt,value
2022-10-14T00:02:23.031Z,8.20
2022-10-14T00:04:57.034Z,8.50
2022-10-14T00:07:30.671Z,7.70
2022-10-14T00:10:04.224Z,7.90
2022-10-14T00:12:38.048Z,7.90
2022-10-14T00:15:12.252Z,7.40
2022-10-14T00:17:46.008Z,7.40
2022-10-14T00:20:19.575Z,7.60
2022-10-14T00:22:53.311Z,7.50
2022-10-14T00:25:28.696Z,8.00
2022-10-14T00:28:04.504Z,8.00
2022-10-14T00:30:38.608Z,9.00
2022-10-14T00:33:12.314Z,8.60
2022-10-14T00:35:46.018Z,8.90
2022-10-14T00:38:19.792Z,7.40
2022-10-14T00:40:53.496Z,7.10
2022-10-14T00:43:29.164Z,6.80
2022-10-14T00:46:02.814Z,7.40
2022-10-14T00:48:36.978Z,7.30
2022-10-14T00:51:11.485Z,6.60
2022-10-14T00:53:46.415Z,7.50
2022-10-14T00:56:25.384Z,7.30
2022-10-14T00:59:00.596Z,7.70
2022-10-14T01:01:34.511Z,7.70
2022-10-14T01:04:08.981Z,8.10
2022-10-14T01:07:00.916Z,7.60
2022-10-14T01:10:06.396Z,7.50
2022-10-14T01:13:02.035Z,7.10
2022-10-14T01:15:49.504Z,7.30
2022-10-14T01:18:40.896Z,7.00
2022-10-14T01:21:47.444Z,7.00
2022-10-14T01:24:26.011Z,7.10
2022-10-14T01:27:22.310Z,6.90
2022-10-14T01:30:15.443Z,7.60
2022-10-14T01:33:11.932Z,7.10
2022-10-14T01:36:38.446Z,7.80
2022-10-14T01:39:27.388Z,7.50
2022-10-14T01:42:11.653Z,7.90
2022-10-14T01:44:51.103Z,7.30
2022-10-14T01:47:27.089Z,7.80
2022-10-14T01:50:11.970Z,7.10
2022-10-14T01:52:54.521Z,7.10
2022-10-14T01:55:32.851Z,7.00
2022-10-14T01:58:08.476Z,7.10
2022-10-14T02:00:42.480Z,6.70
2022-10-14T02:03:17.199Z,7.00
2022-10-14T02:06:01.073Z,6.50
2022-10-14T02:09:02.101Z,7.50
2022-10-14T02:12:09.356Z,7.40
2022-10-14T02:14:58.558Z,7.70
2022-10-14T02:17:51.974Z,7.20
2022-10-14T02:20:34.505Z,7.60
2022-10-14T02:23:30.755Z,7.30
2022-10-14T02:26:06.135Z,6.70
2022-10-14T02:28:42.290Z,7.00
2022-10-14T02:31:19.946Z,7.20
2022-10-14T02:34:00.294Z,6.60
2022-10-14T02:36:37.615Z,7.20
2022-10-14T02:39:16.042Z,6.90
2022-10-14T02:41:50.258Z,6.70
2022-10-14T02:44:24.759Z,6.90
2022-10-14T02:47:01.454Z,6.40
2022-10-14T02:49:35.820Z,6.90
2022-10-14T02:52:09.349Z,6.80
2022-10-14T02:54:44.434Z,7.20
2022-10-14T02:57:18.694Z,7.30
2022-10-14T02:59:53.119Z,6.90
2022-10-14T03:02:27.940Z,6.90
2022-10-14T03:05:03.551Z,7.00
2022-10-14T03:07:38.251Z,7.70
2022-10-14T03:10:13.820Z,8.00
2022-10-14T03:12:47.934Z,7.80
2022-10-14T03:15:30.719Z,6.60
2022-10-14T03:18:05.261Z,7.30
2022-10-14T03:20:49.556Z,8.40
2022-10-14T03:23:26.758Z,9.30
2022-10-14T03:26:01.639Z,9.10
2022-10-14T03:28:42.425Z,8.30
2022-10-14T03:31:41.564Z,7.50
2022-10-14T03:34:34.440Z,7.20
2022-10-14T03:37:15.834Z,7.60
2022-10-14T03:39:56.326Z,7.00
2022-10-14T03:42:31.338Z,7.00
2022-10-14T03:45:06.144Z,7.20
2022-10-14T03:47:40.447Z,6.60
2022-10-14T03:50:14.615Z,7.40
2022-10-14T03:52:55.890Z,7.40
2022-10-14T03:55:40.630Z,7.50
2022-10-14T03:58:16.065Z,8.10
2022-10-14T04:00:56.822Z,7.30
2022-10-14T04:03:43.605Z,8.40
2022-10-14T04:06:18.385Z,7.70
2022-10-14T04:08:52.827Z,7.20
2022-10-14T04:11:36.055Z,7.30
2022-10-14T04:14:15.881Z,7.40
2022-10-14T04:16:54.439Z,7.40
2022-10-14T04:19:29.356Z,7.10
2022-10-14T04:22:02.490Z,6.20
2022-10-14T04:24:35.349Z,5.40
2022-10-14T04:27:08.231Z,6.00
2022-10-14T04:29:50.388Z,6.30
2022-10-14T04:35:07.184Z,5.90
2022-10-14T04:37:40.440Z,7.30
2022-10-14T04:40:29.173Z,7.10
2022-10-14T04:43:02.951Z,7.30
2022-10-14T04:45:39.384Z,7.00
2022-10-14T04:48:20.668Z,6.10
2022-10-14T04:50:58.643Z,5.60
2022-10-14T04:53:54.449Z,5.30
2022-10-14T04:56:58.147Z,5.80
2022-10-14T04:59:32.602Z,7.10
2022-10-14T05:02:24.534Z,6.40
2022-10-14T05:05:06.114Z,6.30
2022-10-14T05:07:42.017Z,5.70
2022-10-14T05:10:29.695Z,5.80
2022-10-14T05:13:03.897Z,7.40
2022-10-14T05:15:40.981Z,7.60
2022-10-14T05:18:18.602Z,6.80
2022-10-14T05:21:05.851Z,5.60
2022-10-14T05:23:52.680Z,6.20
2022-10-14T05:26:27.210Z,5.30
2022-10-14T05:29:05.396Z,5.50
2022-10-14T05:31:40.391Z,7.10
2022-10-14T05:34:27.597Z,7.50
2022-10-14T05:37:03.289Z,8.20
2022-10-14T05:39:44.270Z,8.80
2022-10-14T05:42:18.911Z,9.20
2022-10-14T05:44:53.966Z,9.60
2022-10-14T05:47:27.854Z,10.70
2022-10-14T05:50:05.725Z,9.00
2022-10-14T05:52:41.276Z,8.30
2022-10-14T05:55:22.654Z,7.10
2022-10-14T05:58:00.592Z,6.30
2022-10-14T06:00:40.689Z,6.30
2022-10-14T06:03:17.966Z,9.50
2022-10-14T06:05:51.683Z,9.50
2022-10-14T06:08:26.906Z,7.60
2022-10-14T06:11:06.530Z,7.00
2022-10-14T06:13:41.883Z,5.90
2022-10-14T06:16:16.492Z,6.30
2022-10-14T06:18:54.282Z,7.00
2022-10-14T06:21:29.237Z,6.30
2022-10-14T06:24:04.055Z,6.20
2022-10-14T06:26:39.090Z,7.40
2022-10-14T06:29:13.656Z,6.30
2022-10-14T06:31:47.008Z,6.20
2022-10-14T06:34:24.295Z,6.00
2022-10-14T06:37:02.052Z,5.10
2022-10-14T06:39:36.661Z,6.10
2022-10-14T06:42:13.083Z,9.90
2022-10-14T06:44:46.774Z,8.00
2022-10-14T06:47:20.342Z,8.40
2022-10-14T06:49:53.818Z,8.50
2022-10-14T06:52:27.707Z,9.30
2022-10-14T06:55:01.569Z,8.00
2022-10-14T06:57:35.326Z,6.40
2022-10-14T07:00:10.998Z,6.20
2022-10-14T07:02:45.613Z,6.30
2022-10-14T07:05:19.930Z,6.40
2022-10-14T07:07:53.356Z,7.20
2022-10-14T07:10:27.468Z,6.60
2022-10-14T07:13:01.841Z,9.00
2022-10-14T07:15:36.316Z,6.60
2022-10-14T07:18:10.499Z,5.50
2022-10-14T07:20:44.325Z,4.30
2022-10-14T07:23:18.762Z,4.80
2022-10-14T07:25:52.607Z,4.30
2022-10-14T07:28:26.782Z,4.60
2022-10-14T07:31:07.517Z,5.10
2022-10-14T07:33:42.714Z,4.80
2022-10-14T07:36:21.625Z,5.40
2022-10-14T07:44:09.197Z,5.20
2022-10-14T07:46:46.650Z,4.70
2022-10-14T07:49:22.247Z,4.90
2022-10-14T07:51:56.831Z,6.60
2022-10-14T07:57:10.934Z,6.10
2022-10-14T07:59:45.478Z,5.90
2022-10-14T08:02:20.423Z,6.90
2022-10-14T08:05:13.108Z,6.10
2022-10-14T08:07:53.005Z,5.20
2022-10-14T08:10:26.826Z,5.20
2022-10-14T08:13:01.270Z,5.50
2022-10-14T08:15:45.571Z,6.20
2022-10-14T08:18:19.636Z,5.40
2022-10-14T08:20:53.408Z,5.10
2022-10-14T08:23:27.748Z,5.80
2022-10-14T08:26:01.309Z,5.20
2022-10-14T08:28:35.407Z,5.20
2022-10-14T08:31:08.539Z,5.50
2022-10-14T08:33:41.578Z,5.40
2022-10-14T08:36:16.201Z,5.30
2022-10-14T08:38:50.643Z,5.50
2022-10-14T08:41:29.746Z,5.30
2022-10-14T08:44:27.187Z,5.50
2022-10-14T08:47:07.503Z,5.50
2022-10-14T08:50:04.412Z,5.50
2022-10-14T08:52:51.768Z,5.30
2022-10-14T08:55:37.624Z,5.00
2022-10-14T08:58:29.711Z,6.10
2022-10-14T09:01:13.582Z,6.50
2022-10-14T09:03:47.391Z,6.60
2022-10-14T09:06:27.108Z,5.20
2022-10-14T09:09:40.566Z,5.00
2022-10-14T09:12:19.673Z,5.40
2022-10-14T09:15:16.381Z,4.90
2022-10-14T09:18:10.129Z,5.30
2022-10-14T09:20:45.206Z,5.70
2022-10-14T09:23:24.036Z,5.90
2022-10-14T09:26:00.284Z,4.90
2022-10-14T09:28:41.090Z,4.90
2022-10-14T09:31:16.814Z,5.40
2022-10-14T09:33:51.597Z,5.70
2022-10-14T09:36:25.909Z,5.30
2022-10-14T09:39:03.741Z,5.40
2022-10-14T09:41:41.120Z,4.50
2022-10-14T09:44:19.322Z,5.40
2022-10-14T09:47:10.736Z,4.90
2022-10-14T09:49:51.149Z,5.10
2022-10-14T09:52:31.696Z,5.10
2022-10-14T09:55:07.514Z,5.10
2022-10-14T09:57:41.831Z,5.50
2022-10-14T10:00:29.686Z,6.70
2022-10-14T10:03:03.769Z,5.10
2022-10-14T10:05:38.267Z,5.00
2022-10-14T10:08:22.544Z,5.00
2022-10-14T10:11:06.957Z,5.70
2022-10-14T10:13:48.855Z,4.80
2022-10-14T10:16:27.740Z,5.10
2022-10-14T10:19:21.603Z,5.00
2022-10-14T10:21:55.016Z,4.90
2022-10-14T10:24:30.840Z,5.40
2022-10-14T10:27:22.702Z,5.40
2022-10-14T10:29:58.554Z,5.40
2022-10-14T10:32:41.113Z,6.90
2022-10-14T10:37:49.945Z,7.30
2022-10-14T10:41:09.648Z,7.40
2022-10-14T10:44:03.076Z,6.00
2022-10-14T10:47:16.050Z,5.60
2022-10-14T10:50:11.523Z,7.80
2022-10-14T10:52:48.537Z,6.30
2022-10-14T10:55:36.423Z,6.90
2022-10-14T10:58:45.087Z,7.80
2022-10-14T11:01:33.729Z,7.50
2022-10-14T11:04:31.682Z,6.50
2022-10-14T11:08:12.736Z,5.90
2022-10-14T11:11:40.804Z,5.60
2022-10-14T11:14:27.259Z,5.80
2022-10-14T11:17:28.490Z,5.50
2022-10-14T11:20:23.005Z,5.40
2022-10-14T11:23:00.620Z,5.40
2022-10-14T11:25:49.970Z,4.50
2022-10-14T11:28:58.536Z,4.70
2022-10-14T11:31:54.625Z,5.30
2022-10-14T11:34:34.433Z,5.50
2022-10-14T11:37:35.372Z,5.60
2022-10-14T11:40:47.326Z,4.70
2022-10-14T11:43:27.034Z,5.20
2022-10-14T11:46:02.438Z,4.70
2022-10-14T11:49:11.541Z,5.70
2022-10-14T11:51:53.092Z,5.40
2022-10-14T11:54:37.753Z,5.50
2022-10-14T11:57:34.041Z,5.60
2022-10-14T12:00:42.469Z,6.40
2022-10-14T12:03:25.438Z,5.90
2022-10-14T12:06:27.263Z,5.60
2022-10-14T12:09:19.889Z,6.00
2022-10-14T12:12:07.271Z,5.20
2022-10-14T12:14:50.779Z,5.20
2022-10-14T12:17:48.594Z,5.60
2022-10-14T12:20:57.513Z,4.20
2022-10-14T12:23:41.976Z,4.50
2022-10-14T12:26:52.003Z,4.70
2022-10-14T12:29:28.454Z,4.70
2022-10-14T12:32:10.456Z,5.10
2022-10-14T12:34:44.979Z,5.10
2022-10-14T12:37:38.791Z,4.90
2022-10-14T12:40:16.754Z,4.40
2022-10-14T12:43:22.511Z,4.40
2022-10-14T12:46:14.336Z,4.80
2022-10-14T12:48:52.431Z,5.60
2022-10-14T12:51:27.810Z,8.10
2022-10-14T12:54:13.721Z,8.10
2022-10-14T12:57:08.575Z,5.80
2022-10-14T12:59:42.332Z,6.00
2022-10-14T13:02:34.190Z,5.10
2022-10-14T13:05:29.282Z,5.00
2022-10-14T13:08:24.938Z,5.40
2022-10-14T13:11:06.779Z,5.10
2022-10-14T13:13:42.277Z,5.30
2022-10-14T13:16:34.427Z,5.90
2022-10-14T13:21:39.666Z,5.00
2022-10-14T13:24:29.735Z,5.00
2022-10-14T13:27:08.031Z,5.00
2022-10-14T13:30:06.686Z,5.80
2022-10-14T13:32:48.728Z,4.70
2022-10-14T13:38:17.499Z,4.90
2022-10-14T13:41:00.026Z,4.90
2022-10-14T13:43:43.038Z,5.40
2022-10-14T13:46:38.736Z,5.10
2022-10-14T13:49:22.953Z,5.20
2022-10-14T13:52:11.226Z,5.30
2022-10-14T13:54:44.478Z,6.40
2022-10-14T13:57:47.898Z,5.60
2022-10-14T14:00:40.523Z,5.10
2022-10-14T14:03:27.958Z,5.60
2022-10-14T14:06:01.846Z,5.10
2022-10-14T14:08:40.935Z,5.40
2022-10-14T14:11:28.003Z,5.70
2022-10-14T14:14:08.972Z,5.40
2022-10-14T14:16:55.702Z,5.60
2022-10-14T14:19:37.786Z,5.40
2022-10-14T14:22:11.254Z,5.40
2022-10-14T14:24:44.620Z,5.70
2022-10-14T14:27:20.167Z,5.80
2022-10-14T14:29:55.279Z,5.30
2022-10-14T14:32:34.378Z,5.90
2022-10-14T14:35:16.096Z,5.20
2022-10-14T14:37:58.877Z,5.40
2022-10-14T14:40:33.780Z,5.70
2022-10-14T14:43:07.822Z,6.30
2022-10-14T14:45:46.724Z,6.00
2022-10-14T14:48:20.780Z,6.10
2022-10-14T14:50:53.927Z,5.60
2022-10-14T14:53:30.268Z,5.80
2022-10-14T14:56:12.026Z,6.00
2022-10-14T14:58:54.668Z,5.60
2022-10-14T15:01:29.986Z,6.30
2022-10-14T15:04:20.406Z,6.80
2022-10-14T15:06:58.813Z,6.50
2022-10-14T15:09:45.291Z,7.00
2022-10-14T15:12:26.440Z,7.00
2022-10-14T15:15:05.875Z,8.40
2022-10-14T15:17:41.096Z,7.00
2022-10-14T15:22:47.728Z,7.50
2022-10-14T15:25:35.697Z,7.50
2022-10-14T15:28:28.221Z,7.70
2022-10-14T15:31:05.998Z,8.20
2022-10-14T15:33:39.320Z,9.00
2022-10-14T15:36:15.315Z,9.20
2022-10-14T15:38:48.505Z,10.50
2022-10-14T15:41:21.417Z,10.70
2022-10-14T15:43:54.561Z,8.70
2022-10-14T15:46:46.323Z,9.30
2022-10-14T15:49:25.302Z,8.10
2022-10-14T15:51:58.878Z,9.00
2022-10-14T15:54:32.095Z,18.00
2022-10-14T15:57:06.257Z,11.70
2022-10-14T15:59:41.614Z,9.20
2022-10-14T16:02:33.483Z,10.80
2022-10-14T16:05:19.231Z,10.50
2022-10-14T16:07:55.038Z,11.10
2022-10-14T16:10:32.087Z,15.00
2022-10-14T16:13:08.058Z,15.00
2022-10-14T16:15:51.504Z,19.00
2022-10-14T16:18:25.641Z,20.60
2022-10-14T16:21:05.226Z,17.10
2022-10-14T16:23:40.519Z,14.80
2022-10-14T16:26:15.029Z,14.20
2022-10-14T16:28:48.408Z,12.30
2022-10-14T16:31:22.881Z,13.10
2022-10-14T16:33:59.799Z,17.20
2022-10-14T16:36:33.797Z,19.00
2022-10-14T16:39:08.934Z,20.80
2022-10-14T16:41:41.691Z,20.00
2022-10-14T16:44:27.858Z,18.20
2022-10-14T16:47:20.839Z,18.60
2022-10-14T16:49:53.981Z,14.80
2022-10-14T16:52:27.011Z,13.70
2022-10-14T16:55:00.288Z,13.70
2022-10-14T16:57:33.346Z,13.00
2022-10-14T17:00:06.508Z,14.30
2022-10-14T17:02:39.563Z,13.60
2022-10-14T17:05:13.509Z,14.10
2022-10-14T17:07:46.606Z,13.90
2022-10-14T17:10:21.933Z,13.70
2022-10-14T17:12:55.980Z,13.30
2022-10-14T17:15:28.593Z,13.10
2022-10-14T17:18:01.610Z,13.20
2022-10-14T17:20:34.809Z,13.50
2022-10-14T17:23:10.253Z,12.30
2022-10-14T17:25:47.824Z,11.80
2022-10-14T17:28:21.214Z,11.60
2022-10-14T17:30:54.637Z,10.60
2022-10-14T17:33:28.155Z,10.60
2022-10-14T17:36:02.346Z,10.00
2022-10-14T17:38:36.568Z,11.40
2022-10-14T17:41:11.751Z,10.60
2022-10-14T17:43:52.024Z,10.20
2022-10-14T17:46:26.173Z,10.20
2022-10-14T17:49:01.517Z,10.50
2022-10-14T17:51:34.960Z,9.30
2022-10-14T17:54:11.942Z,9.20
2022-10-14T17:56:44.873Z,9.80
2022-10-14T17:59:17.755Z,12.80
2022-10-14T18:02:02.285Z,21.40
2022-10-14T18:04:38.042Z,26.00
2022-10-14T18:07:11.482Z,20.30
2022-10-14T18:09:44.332Z,22.30
2022-10-14T18:12:17.287Z,21.00
2022-10-14T18:14:50.690Z,21.20
2022-10-14T18:17:24.475Z,23.20
2022-10-14T18:19:58.156Z,16.70
2022-10-14T18:22:31.519Z,15.40
2022-10-14T18:25:05.692Z,12.40
2022-10-14T18:27:38.920Z,11.00
2022-10-14T18:30:13.034Z,9.00
2022-10-14T18:32:46.424Z,7.90
2022-10-14T18:35:19.382Z,7.40
2022-10-14T18:37:52.304Z,8.20
2022-10-14T18:40:25.999Z,7.20
2022-10-14T18:43:00.279Z,7.90
2022-10-14T18:45:35.555Z,8.10
2022-10-14T18:48:08.427Z,8.30
2022-10-14T18:50:41.549Z,9.10
2022-10-14T18:53:14.475Z,9.10
2022-10-14T18:55:47.546Z,10.90
2022-10-14T18:58:20.723Z,12.90
2022-10-14T19:00:54.144Z,13.80
2022-10-14T19:03:26.724Z,12.20
2022-10-14T19:06:01.155Z,12.40
2022-10-14T19:08:34.972Z,12.20
2022-10-14T19:11:16.989Z,14.30
2022-10-14T19:13:52.630Z,12.20
2022-10-14T19:16:30.174Z,11.50
2022-10-14T19:19:14.736Z,12.20
2022-10-14T19:21:50.499Z,11.10
2022-10-14T19:24:23.542Z,10.80
2022-10-14T19:26:57.396Z,10.20
2022-10-14T19:29:30.387Z,11.30
2022-10-14T19:32:03.402Z,11.50
2022-10-14T19:34:36.371Z,9.80
2022-10-14T19:37:09.267Z,9.10
2022-10-14T19:39:43.151Z,9.70
2022-10-14T19:42:16.090Z,9.00
2022-10-14T19:44:49.080Z,9.60
2022-10-14T19:47:22.099Z,9.30
2022-10-14T19:49:55.121Z,9.90
2022-10-14T19:52:28.025Z,10.90
2022-10-14T19:55:01.337Z,12.10
2022-10-14T19:57:34.491Z,10.00
2022-10-14T20:00:07.886Z,9.40
2022-10-14T20:02:41.313Z,8.70
2022-10-14T20:05:17.493Z,8.60
2022-10-14T20:07:50.889Z,8.80
2022-10-14T20:10:23.946Z,9.90
2022-10-14T20:12:57.196Z,15.20
2022-10-14T20:15:29.844Z,11.40
2022-10-14T20:18:02.966Z,10.10
2022-10-14T20:20:36.291Z,14.70
2022-10-14T20:23:09.162Z,12.50
2022-10-14T20:25:43.393Z,10.40
2022-10-14T20:28:20.477Z,9.70
2022-10-14T20:30:54.425Z,8.70
2022-10-14T20:33:27.470Z,7.90
2022-10-14T20:36:13.889Z,8.30
2022-10-14T20:38:47.646Z,7.70
2022-10-14T20:41:22.184Z,7.70
2022-10-14T20:43:57.441Z,7.80
2022-10-14T20:46:30.061Z,7.90
2022-10-14T20:49:02.558Z,7.80
2022-10-14T20:51:34.931Z,7.60
2022-10-14T20:54:10.988Z,8.40
2022-10-14T20:56:44.680Z,6.70
2022-10-14T20:59:17.317Z,5.80
2022-10-14T21:01:49.862Z,5.30
2022-10-14T21:04:22.491Z,5.20
2022-10-14T21:06:55.294Z,5.00
2022-10-14T21:09:28.279Z,5.50
2022-10-14T21:12:01.350Z,5.30
2022-10-14T21:14:34.126Z,5.10
2022-10-14T21:17:07.068Z,5.30
2022-10-14T21:19:40.303Z,6.00
2022-10-14T21:22:13.389Z,6.10
2022-10-14T21:24:46.557Z,7.00
2022-10-14T21:27:19.490Z,8.60
2022-10-14T21:29:52.202Z,7.60
2022-10-14T21:32:25.395Z,7.50
2022-10-14T21:34:58.968Z,6.80
2022-10-14T21:37:31.416Z,6.00
2022-10-14T21:40:04.350Z,5.70
2022-10-14T21:42:37.218Z,6.50
2022-10-14T21:45:10.076Z,5.60
2022-10-14T21:47:42.768Z,5.20
2022-10-14T21:50:16.126Z,5.80
2022-10-14T21:52:48.726Z,5.10
2022-10-14T21:55:21.225Z,5.20
2022-10-14T21:57:53.661Z,5.00
2022-10-14T22:00:26.327Z,5.10
2022-10-14T22:02:59.010Z,4.30
2022-10-14T22:05:34.993Z,4.40
2022-10-14T22:08:08.142Z,4.50
2022-10-14T22:10:45.423Z,4.80
2022-10-14T22:13:17.881Z,4.60
2022-10-14T22:15:50.328Z,4.70
2022-10-14T22:18:23.210Z,4.90
2022-10-14T22:21:05.408Z,4.90
2022-10-14T22:26:16.024Z,4.60
2022-10-14T22:28:49.397Z,4.50
2022-10-14T22:31:25.518Z,4.90
2022-10-14T22:33:58.453Z,4.90
2022-10-14T22:36:32.725Z,4.60
2022-10-14T22:39:11.623Z,4.30
2022-10-14T22:41:44.461Z,4.30
2022-10-14T22:44:16.813Z,3.90
2022-10-14T22:46:49.479Z,4.00
2022-10-14T22:49:22.196Z,3.40
2022-10-14T22:51:56.686Z,3.80
2022-10-14T22:54:29.153Z,4.00
2022-10-14T22:57:01.577Z,3.70
2022-10-14T22:59:34.304Z,4.10
2022-10-14T23:02:06.998Z,4.00
2022-10-14T23:04:39.784Z,4.30
2022-10-14T23:07:12.796Z,4.30
2022-10-14T23:09:45.817Z,4.30
2022-10-14T23:12:18.818Z,3.90
2022-10-14T23:14:51.903Z,3.90
2022-10-14T23:17:24.557Z,3.60
2022-10-14T23:19:57.498Z,3.40
2022-10-14T23:22:30.628Z,3.60
2022-10-14T23:25:03.460Z,3.90
2022-10-14T23:27:36.423Z,4.20
2022-10-14T23:30:10.028Z,4.10
2022-10-14T23:32:43.138Z,4.00
2022-10-14T23:35:16.520Z,3.60
2022-10-14T23:37:49.279Z,3.90
2022-10-14T23:40:22.276Z,3.90
2022-10-14T23:42:55.372Z,4.30
2022-10-14T23:45:28.104Z,4.20
2022-10-14T23:48:00.728Z,3.60
2022-10-14T23:50:33.901Z,4.10
2022-10-14T23:53:06.778Z,3.70
2022-10-14T23:55:39.888Z,3.10
2022-10-14T23:58:13.175Z,3.30
